Time;durP1;ratioP1;P1;durP2;ratioP2;P2;SDS_P1;SDS_P2;PMS_P1;PMS_P2;Temp;Humidity;BMP_temperature;BMP_pressure;BME280_temperature;BME280_humidity;BME280_pressure;Samples;Min_cycle;Max_cycle;Signal;HPM_P1;HPM_P2
2020/12/19 00:01:09;;;;;;;63.20;27.20;;;;;;;0.10;87.69;101193.59;2110905;82;21125;-71
2020/12/19 00:04:11;;;;;;;55.73;25.82;;;;;;;0.10;87.60;101189.67;2120427;82;21319;-74
2020/12/19 00:07:12;;;;;;;58.78;26.37;;;;;;;0.08;87.84;101187.13;2122210;82;21138;-71
2020/12/19 00:10:14;;;;;;;57.85;27.40;;;;;;;0.07;87.82;101178.08;2119054;82;21153;-71
2020/12/19 00:13:16;;;;;;;52.85;25.88;;;;;;;0.06;87.84;101172.02;2118407;82;21113;-75
2020/12/19 00:16:18;;;;;;;57.73;27.17;;;;;;;0.05;87.91;101180.75;2120362;82;21159;-71
2020/12/19 00:19:20;;;;;;;60.12;27.50;;;;;;;0.02;87.84;101176.98;2112408;82;21184;-70
2020/12/19 00:22:22;;;;;;;53.48;26.27;;;;;;;0.00;88.01;101173.63;2118766;82;21137;-71
2020/12/19 00:25:23;;;;;;;54.73;25.95;;;;;;;-0.01;87.95;101169.30;2120138;82;21113;-71
2020/12/19 00:28:25;;;;;;;52.10;25.12;;;;;;;0.00;88.16;101164.49;2120531;82;21111;-70
2020/12/19 00:31:27;;;;;;;55.98;26.65;;;;;;;-0.01;88.05;101175.36;2117628;82;21133;-75
2020/12/19 00:34:28;;;;;;;53.73;24.25;;;;;;;-0.02;88.17;101178.06;2121604;82;21534;-70
2020/12/19 00:37:31;;;;;;;57.45;25.95;;;;;;;-0.02;87.92;101178.06;2116282;82;21157;-70
2020/12/19 00:40:33;;;;;;;48.85;24.43;;;;;;;0.00;87.85;101184.06;2118319;82;21702;-70
2020/12/19 00:43:35;;;;;;;45.88;23.40;;;;;;;0.02;87.86;101186.58;2118786;82;21174;-71
2020/12/19 00:46:37;;;;;;;48.73;24.95;;;;;;;0.03;87.96;101186.95;2120899;82;21557;-71
2020/12/19 00:49:39;;;;;;;43.73;23.07;;;;;;;0.03;87.95;101180.44;2119656;82;21117;-70
2020/12/19 00:52:40;;;;;;;52.85;25.57;;;;;;;0.03;87.86;101181.30;2118063;82;21172;-70
2020/12/19 00:55:42;;;;;;;48.58;22.95;;;;;;;0.02;88.08;101179.59;2118563;82;21632;-71
2020/12/19 00:58:45;;;;;;;48.10;23.25;;;;;;;0.02;88.08;101177.45;2099535;83;21131;-70
2020/12/19 01:01:47;;;;;;;46.10;21.23;;;;;;;0.04;87.85;101184.75;2121914;82;21578;-70
2020/12/19 01:04:49;;;;;;;43.28;22.37;;;;;;;0.06;87.77;101193.33;2117685;82;21488;-71
2020/12/19 01:07:50;;;;;;;43.70;22.05;;;;;;;0.08;87.74;101187.59;2114745;82;21197;-70
2020/12/19 01:10:52;;;;;;;41.98;21.85;;;;;;;0.12;87.57;101185.23;2119872;82;21090;-70
2020/12/19 01:13:54;;;;;;;41.75;21.95;;;;;;;0.12;87.60;101183.47;2115384;82;21179;-75
2020/12/19 01:16:56;;;;;;;44.67;21.25;;;;;;;0.11;87.69;101181.75;2117111;82;21606;-70
2020/12/19 01:19:59;;;;;;;41.90;21.15;;;;;;;0.08;87.58;101181.91;2114372;82;21653;-74
2020/12/19 01:23:01;;;;;;;41.85;21.80;;;;;;;0.07;87.56;101183.30;2119430;82;22355;-70
2020/12/19 01:26:03;;;;;;;34.73;19.37;;;;;;;0.07;87.58;101171.55;2124632;82;21180;-70
2020/12/19 01:29:05;;;;;;;40.98;21.85;;;;;;;0.10;87.51;101174.02;2118154;82;21149;-70
2020/12/19 01:32:06;;;;;;;44.30;22.37;;;;;;;0.11;87.46;101183.06;2117850;82;21102;-70
2020/12/19 01:35:08;;;;;;;45.43;22.58;;;;;;;0.12;87.48;101183.93;2117739;82;21126;-73
2020/12/19 01:38:10;;;;;;;40.83;22.25;;;;;;;0.12;87.53;101169.11;2118680;82;21180;-71
2020/12/19 01:41:12;;;;;;;38.23;20.45;;;;;;;0.10;87.40;101165.72;2116616;82;21168;-70
2020/12/19 01:44:13;;;;;;;40.28;20.02;;;;;;;0.13;87.40;101160.81;2121894;82;21101;-73
2020/12/19 01:47:17;;;;;;;38.58;21.15;;;;;;;0.12;87.68;101156.06;2117441;82;21510;-70
2020/12/19 01:50:19;;;;;;;38.95;21.07;;;;;;;0.12;87.46;101153.45;2114855;82;21074;-70
2020/12/19 01:53:21;;;;;;;42.35;22.07;;;;;;;0.14;87.42;101135.09;2115459;82;21133;-70
2020/12/19 01:56:43;;;;;;;40.28;21.45;;;;;;;0.16;87.50;101135.86;2117834;82;21192;-75
2020/12/19 01:59:45;;;;;;;41.98;22.73;;;;;;;0.16;87.57;101126.73;2119681;82;21129;-70
2020/12/19 02:02:47;;;;;;;38.63;20.00;;;;;;;0.13;87.66;101127.72;2111344;82;21224;-70
2020/12/19 02:05:52;;;;;;;37.00;19.40;;;;;;;0.11;87.82;101130.02;2118134;82;22598;-71
2020/12/19 02:08:54;;;;;;;39.27;21.15;;;;;;;0.11;87.74;101135.23;2119144;82;21677;-70
2020/12/19 02:11:55;;;;;;;32.50;18.02;;;;;;;0.13;87.68;101130.80;2119219;82;21369;-71
2020/12/19 02:14:57;;;;;;;35.38;19.73;;;;;;;0.15;87.67;101134.19;2118457;82;21095;-70
2020/12/19 02:17:59;;;;;;;38.63;20.10;;;;;;;0.19;87.54;101138.33;2115763;82;21236;-70
2020/12/19 02:21:01;;;;;;;37.83;19.80;;;;;;;0.22;87.54;101132.95;2119102;82;21157;-71
2020/12/19 02:24:02;;;;;;;37.60;19.42;;;;;;;0.22;87.51;101132.95;2112535;82;21700;-72
2020/12/19 02:27:05;;;;;;;34.80;18.35;;;;;;;0.21;87.42;101123.44;2118306;82;21205;-70
2020/12/19 02:30:06;;;;;;;36.20;18.55;;;;;;;0.22;87.52;101122.51;2119292;82;21090;-71
2020/12/19 02:33:08;;;;;;;31.73;16.55;;;;;;;0.24;87.54;101114.14;2118560;82;21169;-69
2020/12/19 02:36:09;;;;;;;28.20;16.02;;;;;;;0.22;87.61;101107.69;2115496;82;21103;-70
2020/12/19 02:39:12;;;;;;;30.95;17.57;;;;;;;0.21;87.42;101106.47;2116414;82;21165;-74
2020/12/19 02:42:13;;;;;;;31.00;18.07;;;;;;;0.21;87.38;101099.95;2118285;82;21108;-70
2020/12/19 02:45:15;;;;;;;33.55;17.20;;;;;;;0.15;87.33;101088.51;2121108;82;21090;-70
2020/12/19 02:48:16;;;;;;;30.35;16.77;;;;;;;0.09;87.15;101094.04;2116494;82;21762;-70
2020/12/19 02:51:18;;;;;;;30.85;14.25;;;;;;;0.06;87.01;101092.86;2117828;82;21525;-73
2020/12/19 02:54:20;;;;;;;26.33;14.28;;;;;;;0.02;86.91;101091.34;2117464;82;21264;-70
2020/12/19 02:57:21;;;;;;;27.80;14.10;;;;;;;-0.01;86.92;101087.95;2114521;82;21263;-70
2020/12/19 03:00:23;;;;;;;25.72;14.70;;;;;;;0.00;87.01;101080.98;2120507;82;21073;-71
2020/12/19 03:03:25;;;;;;;26.50;15.05;;;;;;;-0.01;86.88;101077.51;2106599;82;21135;-70
2020/12/19 03:06:27;;;;;;;24.65;13.72;;;;;;;-0.03;86.81;101066.76;2101578;83;21510;-71
2020/12/19 03:09:29;;;;;;;24.92;13.72;;;;;;;-0.04;86.76;101071.14;2102437;83;21496;-70
2020/12/19 03:12:30;;;;;;;23.57;12.70;;;;;;;-0.04;86.69;101067.23;2103291;83;21164;-71
2020/12/19 03:15:32;;;;;;;21.37;12.33;;;;;;;-0.04;86.80;101059.86;2103572;83;21188;-70
2020/12/19 03:18:34;;;;;;;22.22;12.60;;;;;;;-0.08;86.82;101053.96;2105782;83;21520;-70
2020/12/19 03:21:35;;;;;;;25.48;13.65;;;;;;;-0.08;86.74;101058.34;2104564;83;21114;-70
2020/12/19 03:24:37;;;;;;;27.05;13.68;;;;;;;-0.11;86.72;101056.73;2104530;83;22695;-70
2020/12/19 03:27:38;;;;;;;24.23;12.40;;;;;;;-0.17;86.82;101053.12;2101999;83;21116;-73
2020/12/19 03:30:40;;;;;;;21.90;12.03;;;;;;;-0.19;86.65;101064.55;2106776;81;21204;-70
2020/12/19 03:33:41;;;;;;;22.07;12.82;;;;;;;-0.23;86.61;101054.70;2109391;83;21333;-71
2020/12/19 03:36:43;;;;;;;21.42;12.28;;;;;;;-0.24;86.54;101052.55;2102572;83;21164;-71
2020/12/19 03:39:45;;;;;;;27.30;13.45;;;;;;;-0.24;86.50;101046.50;2106277;82;21123;-70
2020/12/19 03:42:47;;;;;;;23.02;12.28;;;;;;;-0.25;86.44;101048.27;2100365;83;21088;-70
2020/12/19 03:45:48;;;;;;;23.77;12.43;;;;;;;-0.26;86.42;101043.11;2105241;83;21072;-74
2020/12/19 03:48:50;;;;;;;21.33;12.30;;;;;;;-0.29;86.47;101045.41;2101666;83;21294;-70
2020/12/19 03:51:51;;;;;;;25.10;12.90;;;;;;;-0.31;86.41;101049.88;2103362;83;21177;-70
2020/12/19 03:54:53;;;;;;;19.95;11.70;;;;;;;-0.34;86.38;101050.02;2101490;83;21132;-71
2020/12/19 03:57:55;;;;;;;21.95;12.13;;;;;;;-0.34;86.32;101050.45;2100062;83;21156;-74
2020/12/19 04:00:57;;;;;;;22.20;12.37;;;;;;;-0.38;86.33;101047.63;2108022;82;21083;-70
2020/12/19 04:03:58;;;;;;;21.65;12.88;;;;;;;-0.39;86.29;101049.86;2101095;82;21183;-70
2020/12/19 04:07:02;;;;;;;22.00;12.20;;;;;;;-0.41;86.30;101052.99;2104758;83;21560;-70
2020/12/19 04:10:08;;;;;;;21.27;11.57;;;;;;;-0.44;86.22;101044.02;2097011;82;21155;-74
2020/12/19 04:13:10;;;;;;;20.52;12.73;;;;;;;-0.44;86.17;101046.63;2103323;83;21625;-70
2020/12/19 04:16:12;;;;;;;18.85;10.68;;;;;;;-0.45;86.26;101045.78;2099429;83;22518;-70
2020/12/19 04:19:14;;;;;;;20.75;12.13;;;;;;;-0.47;86.30;101045.84;2106120;83;21181;-75
2020/12/19 04:22:15;;;;;;;23.27;12.33;;;;;;;-0.53;86.25;101046.61;2099218;83;21106;-73
2020/12/19 04:25:17;;;;;;;23.30;12.90;;;;;;;-0.55;86.22;101049.73;2103563;83;21171;-74
2020/12/19 04:28:19;;;;;;;20.48;12.18;;;;;;;-0.57;86.18;101047.66;2078318;83;21162;-70
2020/12/19 04:31:20;;;;;;;22.73;13.62;;;;;;;-0.61;86.12;101045.66;2100710;83;21130;-70
2020/12/19 04:34:24;;;;;;;22.27;12.07;;;;;;;-0.61;86.16;101044.82;2100928;83;21126;-70
2020/12/19 04:37:26;;;;;;;22.87;13.03;;;;;;;-0.61;86.22;101044.36;2101659;83;21103;-72
2020/12/19 04:40:28;;;;;;;21.52;13.03;;;;;;;-0.63;86.20;101039.66;2100485;82;21534;-71
2020/12/19 04:43:30;;;;;;;25.62;12.78;;;;;;;-0.65;86.15;101035.44;2104786;83;21088;-69
2020/12/19 04:46:36;;;;;;;24.98;14.33;;;;;;;-0.67;86.15;101044.66;2105143;83;21100;-71
2020/12/19 04:49:38;;;;;;;25.40;14.13;;;;;;;-0.67;86.13;101045.11;2103234;81;21144;-70
2020/12/19 04:52:40;;;;;;;22.95;12.73;;;;;;;-0.66;86.17;101047.63;2100075;83;21184;-71
2020/12/19 04:55:43;;;;;;;23.60;13.65;;;;;;;-0.67;86.49;101034.69;2105418;83;21086;-70
2020/12/19 04:58:44;;;;;;;28.20;15.13;;;;;;;-0.71;86.34;101036.11;2103582;83;21224;-71
2020/12/19 05:01:46;;;;;;;23.85;13.58;;;;;;;-0.75;86.32;101042.86;2106300;82;21154;-71
2020/12/19 05:04:50;;;;;;;25.43;14.65;;;;;;;-0.77;86.36;101034.26;2118985;82;21166;-73
2020/12/19 05:07:51;;;;;;;21.57;13.08;;;;;;;-0.81;86.29;101040.55;2119947;82;21102;-71
2020/12/19 05:10:53;;;;;;;18.87;10.85;;;;;;;-0.81;86.32;101042.69;2116345;82;21094;-70
2020/12/19 05:13:54;;;;;;;21.65;12.53;;;;;;;-0.82;86.29;101044.05;2120267;82;21565;-70
2020/12/19 05:16:56;;;;;;;24.07;14.23;;;;;;;-0.84;86.41;101049.34;2113369;82;21538;-72
2020/12/19 05:20:00;;;;;;;20.25;12.35;;;;;;;-0.85;86.37;101056.76;2118395;82;21288;-72
2020/12/19 05:23:05;;;;;;;20.65;12.47;;;;;;;-0.87;86.35;101052.53;2116358;82;21096;-71
2020/12/19 05:26:09;;;;;;;19.80;11.73;;;;;;;-0.87;86.37;101056.44;2119059;82;21083;-70
2020/12/19 05:29:12;;;;;;;19.48;11.33;;;;;;;-0.87;86.43;101056.44;2118097;82;21139;-71
2020/12/19 05:32:14;;;;;;;20.55;11.97;;;;;;;-0.86;86.57;101054.24;2114097;82;21160;-70
2020/12/19 05:35:19;;;;;;;19.92;11.43;;;;;;;-0.86;86.61;101056.84;2097452;82;21263;-70
2020/12/19 05:38:20;;;;;;;25.20;13.88;;;;;;;-0.87;86.82;101052.53;2122007;82;21102;-74
2020/12/19 05:41:25;;;;;;;21.57;13.38;;;;;;;-0.88;86.91;101047.78;2121279;82;21110;-71
2020/12/19 05:44:27;;;;;;;20.30;12.43;;;;;;;-0.85;87.04;101054.62;2113426;82;22452;-71
2020/12/19 05:47:28;;;;;;;23.05;12.40;;;;;;;-0.83;87.16;101053.63;2119571;82;21536;-70
2020/12/19 05:50:30;;;;;;;24.65;13.70;;;;;;;-0.81;87.10;101045.76;2119164;82;21061;-75
2020/12/19 05:53:34;;;;;;;21.87;12.98;;;;;;;-0.78;87.06;101049.52;2119687;82;21105;-70
2020/12/19 05:56:46;;;;;;;22.15;12.88;;;;;;;-0.76;87.05;101046.36;2116186;82;21103;-70
2020/12/19 05:59:48;;;;;;;26.95;14.85;;;;;;;-0.70;87.02;101050.85;2120984;82;21233;-70
2020/12/19 06:02:51;;;;;;;24.10;14.23;;;;;;;-0.67;86.93;101043.81;2120032;82;21202;-72
2020/12/19 06:05:55;;;;;;;21.50;12.78;;;;;;;-0.66;86.86;101041.58;2121742;82;21182;-72
2020/12/19 06:08:59;;;;;;;19.23;11.60;;;;;;;-0.67;86.75;101043.34;2115824;82;21516;-71
2020/12/19 06:12:18;;;;;;;21.40;11.60;;;;;;;-0.67;86.64;101039.44;2120274;82;21131;-71
2020/12/19 06:16:05;;;;;;;19.77;11.83;;;;;;;-0.67;86.55;101045.95;2119413;82;21116;-77
2020/12/19 06:19:21;;;;;;;20.00;10.90;;;;;;;-0.67;86.49;101046.42;2113279;81;21483;-71
2020/12/19 06:22:30;;;;;;;19.50;11.48;;;;;;;-0.73;86.49;101052.77;2120218;82;21153;-72
2020/12/19 06:25:42;;;;;;;17.75;11.03;;;;;;;-0.78;86.65;101050.36;2118872;82;21144;-70
2020/12/19 06:28:47;;;;;;;15.98;9.78;;;;;;;-0.80;86.63;101053.48;2114001;82;21136;-70
2020/12/19 06:31:58;;;;;;;22.15;12.43;;;;;;;-0.80;86.69;101051.34;2122666;81;21171;-70
2020/12/19 06:35:10;;;;;;;27.10;12.88;;;;;;;-0.83;86.56;101058.00;2121879;82;21092;-70
2020/12/19 06:38:11;;;;;;;19.92;12.23;;;;;;;-0.82;86.61;101058.38;2121820;81;21148;-72
2020/12/19 06:41:56;;;;;;;20.80;12.75;;;;;;;-0.82;86.55;101053.17;2123528;82;21080;-70
2020/12/19 06:45:22;;;;;;;20.35;12.37;;;;;;;-0.82;86.56;101052.70;2116183;82;21658;-72
2020/12/19 06:48:32;;;;;;;18.90;11.75;;;;;;;-0.83;86.56;101049.72;2118485;82;21150;-72
2020/12/19 06:51:58;;;;;;;21.52;12.15;;;;;;;-0.80;86.63;101052.65;2117426;82;21699;-70
2020/12/19 06:55:00;;;;;;;21.68;13.40;;;;;;;-0.80;86.71;101053.95;2115707;82;21247;-70
2020/12/19 06:58:02;;;;;;;22.25;13.65;;;;;;;-0.79;86.69;101047.81;2093164;82;21159;-70
2020/12/19 07:01:25;;;;;;;37.35;19.90;;;;;;;-0.81;86.73;101044.45;2116838;82;21365;-73
2020/12/19 07:04:34;;;;;;;20.92;12.65;;;;;;;-0.84;86.84;101048.05;2092355;83;21228;-71
2020/12/19 07:07:36;;;;;;;24.12;13.08;;;;;;;-0.84;86.91;101048.05;2080506;83;21343;-71
2020/12/19 07:10:37;;;;;;;21.93;12.98;;;;;;;-0.79;86.96;101046.51;2081460;83;21072;-71
2020/12/19 07:13:58;;;;;;;21.35;13.20;;;;;;;-0.76;87.16;101051.58;2080983;83;21171;-73
2020/12/19 07:17:16;;;;;;;25.57;14.18;;;;;;;-0.71;87.21;101054.81;2081543;83;21196;-79
2020/12/19 07:20:22;;;;;;;17.60;12.98;;;;;;;-0.64;87.08;101061.45;2083017;83;21206;-74
2020/12/19 07:23:24;;;;;;;19.07;11.53;;;;;;;-0.55;86.98;101059.70;2074301;83;21133;-75
2020/12/19 07:26:26;;;;;;;20.02;12.18;;;;;;;-0.45;86.92;101053.61;2085990;83;21640;-73
2020/12/19 07:29:28;;;;;;;20.05;11.93;;;;;;;-0.33;86.87;101057.38;2084516;83;21148;-72
2020/12/19 07:32:29;;;;;;;19.35;12.15;;;;;;;-0.22;86.81;101051.66;2086109;83;21202;-79
2020/12/19 07:35:31;;;;;;;20.43;12.75;;;;;;;-0.14;86.79;101055.57;2084031;82;21149;-71
2020/12/19 07:38:33;;;;;;;21.05;12.53;;;;;;;-0.09;86.67;101052.72;2080809;83;21205;-69
2020/12/19 07:41:36;;;;;;;18.37;11.55;;;;;;;0.02;86.63;101060.02;2086606;82;21735;-78
2020/12/19 07:44:39;;;;;;;17.90;12.37;;;;;;;0.15;86.58;101053.27;2082032;83;21107;-83
2020/12/19 07:47:41;;;;;;;18.00;11.85;;;;;;;0.34;86.47;101055.34;2085001;82;21626;-77
2020/12/19 07:50:42;;;;;;;19.25;12.07;;;;;;;0.53;86.16;101049.99;2085612;83;21161;-71
2020/12/19 07:53:44;;;;;;;19.00;12.03;;;;;;;0.68;85.95;101044.45;2079809;83;21663;-70
2020/12/19 07:56:46;;;;;;;19.75;12.07;;;;;;;0.84;85.73;101041.38;2079677;83;21203;-69
2020/12/19 07:59:48;;;;;;;17.05;11.60;;;;;;;0.99;85.50;101042.83;2081369;83;21635;-74
2020/12/19 08:02:51;;;;;;;17.77;12.00;;;;;;;1.12;85.16;101041.20;2085771;83;22589;-68
2020/12/19 08:05:56;;;;;;;19.45;11.73;;;;;;;1.31;84.97;101041.05;2120005;82;21117;-74
2020/12/19 08:08:57;;;;;;;19.20;12.30;;;;;;;1.47;84.80;101042.36;2118860;82;21181;-69
2020/12/19 08:12:01;;;;;;;19.75;12.55;;;;;;;1.72;84.90;101041.83;2115902;82;21149;-69
2020/12/19 08:15:07;;;;;;;23.57;13.38;;;;;;;1.94;84.50;101039.66;2115273;83;21216;-69
2020/12/19 08:18:12;;;;;;;16.32;11.60;;;;;;;2.15;84.55;101046.72;2118217;82;21157;-69
2020/12/19 08:21:14;;;;;;;16.40;10.48;;;;;;;2.35;83.58;101040.77;2119490;82;21647;-72
2020/12/19 08:24:19;;;;;;;16.20;10.88;;;;;;;2.52;83.16;101037.98;2112297;82;21216;-68
2020/12/19 08:27:43;;;;;;;15.78;10.78;;;;;;;2.72;83.36;101043.31;2115129;82;21568;-71
2020/12/19 08:30:44;;;;;;;16.48;11.78;;;;;;;2.90;82.59;101043.52;2115567;82;21132;-68
2020/12/19 08:33:50;;;;;;;18.05;12.15;;;;;;;3.18;83.05;101038.30;2117048;82;21194;-69
2020/12/19 08:36:51;;;;;;;21.87;12.88;;;;;;;3.46;82.51;101042.16;2118789;82;21161;-69
2020/12/19 08:40:17;;;;;;;20.62;13.35;;;;;;;3.68;82.71;101040.79;2115390;82;21133;-70
2020/12/19 08:43:20;;;;;;;15.38;10.30;;;;;;;3.95;82.26;101045.55;2115067;82;21761;-70
2020/12/19 08:46:22;;;;;;;16.57;10.88;;;;;;;4.08;81.32;101053.44;2121743;82;21199;-69
2020/12/19 08:49:24;;;;;;;14.85;9.83;;;;;;;3.99;80.78;101054.89;2121941;82;21103;-70
2020/12/19 08:52:28;;;;;;;12.90;9.20;;;;;;;4.03;80.89;101060.80;2123439;82;22332;-70
2020/12/19 08:55:30;;;;;;;16.05;10.15;;;;;;;4.23;80.87;101055.53;2118297;82;21481;-70
2020/12/19 08:58:32;;;;;;;14.23;10.20;;;;;;;4.21;80.24;101050.37;2119471;82;22682;-70
2020/12/19 09:01:33;;;;;;;13.53;10.08;;;;;;;4.24;80.47;101044.91;2119000;82;21244;-70
2020/12/19 09:04:35;;;;;;;15.93;10.55;;;;;;;4.35;80.20;101041.56;2101991;82;21189;-70
2020/12/19 09:07:38;;;;;;;15.38;11.03;;;;;;;4.52;79.97;101048.77;2079833;83;21244;-72
2020/12/19 09:10:41;;;;;;;14.80;9.90;;;;;;;4.61;79.28;101040.25;2078254;83;21172;-70
2020/12/19 09:13:43;;;;;;;14.07;9.43;;;;;;;4.63;78.74;101033.11;2082085;82;21138;-69
2020/12/19 09:16:51;;;;;;;11.88;8.78;;;;;;;4.66;78.72;101036.36;2081670;83;21155;-72
2020/12/19 09:20:06;;;;;;;16.37;9.83;;;;;;;4.81;78.85;101037.55;2055914;83;21564;-76
2020/12/19 09:23:12;;;;;;;14.15;9.88;;;;;;;4.92;79.00;101030.58;2078171;82;21114;-75
2020/12/19 09:26:14;;;;;;;14.05;9.35;;;;;;;5.11;77.81;101026.66;2083669;83;21134;-74
2020/12/19 09:29:24;;;;;;;15.10;8.98;;;;;;;5.08;77.56;101026.88;2088316;83;21197;-77
2020/12/19 09:32:25;;;;;;;12.78;8.58;;;;;;;5.15;77.61;101022.84;2080496;83;21125;-73
2020/12/19 09:35:29;;;;;;;11.90;8.38;;;;;;;5.03;77.25;101025.05;2084911;82;21660;-77
2020/12/19 09:38:31;;;;;;;14.70;9.53;;;;;;;5.11;77.42;101020.08;2086702;83;21094;-71
2020/12/19 09:41:33;;;;;;;13.70;9.60;;;;;;;5.10;76.96;101017.94;2082908;83;22392;-71
2020/12/19 09:44:34;;;;;;;14.90;10.10;;;;;;;5.13;76.93;101020.34;2082675;83;21345;-73
2020/12/19 09:47:36;;;;;;;15.90;10.18;;;;;;;5.08;76.93;101005.84;2080937;82;21732;-72
2020/12/19 09:50:38;;;;;;;13.40;9.38;;;;;;;5.10;77.03;101011.84;2085427;82;21520;-71
2020/12/19 09:53:39;;;;;;;13.22;9.40;;;;;;;5.12;76.76;101010.78;2081155;83;21603;-71
2020/12/19 09:56:41;;;;;;;14.98;9.35;;;;;;;5.35;76.96;101010.88;2079041;83;21374;-69
2020/12/19 09:59:44;;;;;;;13.88;8.68;;;;;;;5.51;76.87;101009.30;2085874;83;21095;-71
2020/12/19 10:02:48;;;;;;;15.32;9.90;;;;;;;5.64;76.49;101003.99;2082849;82;21211;-73
2020/12/19 10:05:49;;;;;;;16.00;9.65;;;;;;;5.57;76.07;101007.53;2113017;82;22378;-68
2020/12/19 10:08:50;;;;;;;13.62;8.25;;;;;;;5.54;75.96;101011.23;2098741;82;21181;-69
2020/12/19 10:11:57;;;;;;;13.55;8.40;;;;;;;5.60;76.01;101005.53;2120742;82;21578;-71
2020/12/19 10:14:58;;;;;;;12.15;8.88;;;;;;;5.66;74.22;101005.56;2117221;82;21568;-79
2020/12/19 10:18:00;;;;;;;11.90;8.48;;;;;;;5.68;75.44;100996.22;2117562;82;21164;-71
2020/12/19 10:21:01;;;;;;;10.48;7.42;;;;;;;5.61;74.83;100998.47;2117195;82;21162;-69
2020/12/19 10:24:03;;;;;;;12.23;7.47;;;;;;;5.56;73.28;100991.38;2122573;82;21249;-69
2020/12/19 10:27:05;;;;;;;12.18;8.20;;;;;;;5.47;74.28;100985.48;2114213;82;21149;-68
2020/12/19 10:30:06;;;;;;;11.03;7.10;;;;;;;5.49;74.20;100990.14;2120798;82;21256;-69
2020/12/19 10:33:08;;;;;;;10.25;7.53;;;;;;;5.49;74.55;100984.42;2117039;82;21141;-71
2020/12/19 10:36:13;;;;;;;10.28;6.85;;;;;;;5.48;73.32;100979.26;2118506;82;21212;-69
2020/12/19 10:39:14;;;;;;;11.93;7.83;;;;;;;5.46;73.42;100981.16;2117289;82;21187;-71
2020/12/19 10:42:16;;;;;;;12.98;8.95;;;;;;;5.50;73.75;100983.46;2120762;82;21162;-70
2020/12/19 10:45:17;;;;;;;11.78;7.20;;;;;;;5.54;73.21;100986.70;2119590;82;21197;-69
2020/12/19 10:48:19;;;;;;;10.78;7.70;;;;;;;5.54;72.62;100981.44;2118170;82;21105;-69
2020/12/19 10:51:28;;;;;;;11.18;7.67;;;;;;;5.53;73.66;100967.44;2116599;82;21169;-77
2020/12/19 10:54:29;;;;;;;15.08;8.25;;;;;;;5.55;73.36;100964.70;2118397;82;21188;-72
2020/12/19 10:57:31;;;;;;;12.05;7.30;;;;;;;5.46;72.67;100970.14;2097651;82;21109;-68
2020/12/19 11:00:33;;;;;;;11.63;6.92;;;;;;;5.33;71.60;100965.44;2121541;82;22338;-69
2020/12/19 11:03:34;;;;;;;9.63;6.58;;;;;;;5.19;72.50;100966.44;2112924;82;21201;-71
2020/12/19 11:06:36;;;;;;;9.00;6.70;;;;;;;5.31;72.70;100967.34;2092782;83;21215;-73
2020/12/19 11:09:37;;;;;;;10.20;7.20;;;;;;;5.31;72.47;100972.59;2092669;83;21116;-76
2020/12/19 11:12:39;;;;;;;9.73;7.22;;;;;;;5.38;73.32;100968.58;2090958;83;21764;-77
2020/12/19 11:15:40;;;;;;;11.75;7.78;;;;;;;5.49;73.46;100963.37;2094638;83;21101;-71
2020/12/19 11:18:42;;;;;;;10.25;6.58;;;;;;;5.56;72.46;100963.74;2091089;83;21174;-71
2020/12/19 11:21:45;;;;;;;15.18;8.40;;;;;;;5.51;72.30;100956.17;2092164;83;21173;-72
2020/12/19 11:24:50;;;;;;;10.82;7.15;;;;;;;5.50;72.43;100957.62;2097114;83;21180;-73
2020/12/19 11:27:51;;;;;;;11.60;6.97;;;;;;;5.46;72.50;100954.83;2091053;83;21168;-73
2020/12/19 11:30:53;;;;;;;10.93;7.30;;;;;;;5.38;71.92;100954.94;2090792;83;21631;-70
2020/12/19 11:33:55;;;;;;;13.68;7.60;;;;;;;5.27;72.17;100954.89;2090042;83;21147;-73
2020/12/19 11:36:57;;;;;;;12.33;8.10;;;;;;;5.25;72.68;100952.83;2091584;83;21204;-74
2020/12/19 11:39:59;;;;;;;12.53;8.10;;;;;;;5.27;72.65;100948.30;2090355;83;21108;-69
2020/12/19 11:43:00;;;;;;;11.55;7.55;;;;;;;5.38;73.12;100945.73;2094016;83;21113;-70
2020/12/19 11:46:02;;;;;;;11.93;7.60;;;;;;;5.36;72.03;100944.99;2062729;83;21155;-74
2020/12/19 11:49:04;;;;;;;12.53;7.20;;;;;;;5.31;72.94;100941.85;2091860;83;21161;-70
2020/12/19 11:52:10;;;;;;;12.15;7.78;;;;;;;5.21;71.65;100940.87;2093477;83;21160;-80
2020/12/19 11:55:09;;;;;;;12.33;7.40;;;;;;;5.19;72.82;100934.03;2091992;83;21128;-70
2020/12/19 11:58:11;;;;;;;12.95;8.18;;;;;;;5.17;72.30;100934.97;2092556;83;21204;-70
2020/12/19 12:01:13;;;;;;;17.15;8.65;;;;;;;5.07;72.25;100935.77;2094426;83;21648;-71
2020/12/19 12:04:14;;;;;;;15.10;9.10;;;;;;;5.01;72.52;100930.93;2098649;82;21207;-70
2020/12/19 12:07:16;;;;;;;12.70;8.15;;;;;;;4.92;72.21;100930.64;2117737;82;21528;-70
2020/12/19 12:10:17;;;;;;;13.25;7.97;;;;;;;4.79;71.92;100924.61;2115019;82;21601;-79
2020/12/19 12:13:19;;;;;;;14.30;8.50;;;;;;;4.69;72.75;100926.20;2118089;82;21205;-78
2020/12/19 12:16:22;;;;;;;13.72;8.28;;;;;;;4.75;73.23;100919.19;2117438;82;21127;-70
2020/12/19 12:19:23;;;;;;;13.30;8.38;;;;;;;4.82;73.25;100921.75;2098883;82;21169;-72
2020/12/19 12:22:25;;;;;;;13.80;8.05;;;;;;;4.86;72.81;100918.42;2117931;82;22187;-71
2020/12/19 12:25:26;;;;;;;13.55;8.60;;;;;;;4.87;72.57;100918.33;2115117;82;21174;-70
2020/12/19 12:28:28;;;;;;;13.03;9.23;;;;;;;4.76;72.41;100930.53;2117896;82;21149;-72
2020/12/19 12:31:32;;;;;;;16.25;9.65;;;;;;;4.68;72.91;100922.73;2116692;82;21184;-71
2020/12/19 12:34:33;;;;;;;12.95;8.55;;;;;;;4.68;73.19;100917.95;2115047;82;21107;-75
2020/12/19 12:37:35;;;;;;;13.03;8.15;;;;;;;4.68;73.05;100916.64;2119565;82;21227;-71
2020/12/19 12:40:36;;;;;;;13.08;8.55;;;;;;;4.67;72.98;100909.69;2119113;82;21170;-71
2020/12/19 12:43:38;;;;;;;13.60;8.18;;;;;;;4.65;73.16;100920.33;2117914;82;21172;-71
2020/12/19 12:46:39;;;;;;;15.18;8.78;;;;;;;4.66;73.36;100917.22;2116273;82;21521;-79
2020/12/19 12:49:41;;;;;;;12.93;8.15;;;;;;;4.63;73.38;100920.91;2120902;82;21799;-71
2020/12/19 12:52:43;;;;;;;15.90;9.75;;;;;;;4.60;73.35;100917.66;2116711;82;21130;-71
2020/12/19 12:55:44;;;;;;;16.00;9.85;;;;;;;4.55;73.21;100910.56;2119118;82;21165;-68
2020/12/19 12:58:46;;;;;;;16.57;8.58;;;;;;;4.49;73.62;100912.67;2119480;82;21603;-75
2020/12/19 13:01:47;;;;;;;12.80;8.63;;;;;;;4.46;73.59;100914.20;2116885;82;21164;-73
2020/12/19 13:04:49;;;;;;;13.90;7.87;;;;;;;4.44;73.55;100919.20;2118500;82;21600;-74
2020/12/19 13:07:51;;;;;;;14.23;8.40;;;;;;;4.45;73.71;100920.91;2116004;82;21640;-73
2020/12/19 13:10:52;;;;;;;12.37;7.87;;;;;;;4.45;73.72;100915.64;2118409;82;21150;-71
2020/12/19 13:13:53;;;;;;;13.20;8.15;;;;;;;4.42;73.62;100911.45;2119330;82;21162;-75
2020/12/19 13:16:55;;;;;;;16.77;10.45;;;;;;;4.39;73.91;100916.92;2117562;82;21482;-77
2020/12/19 13:19:56;;;;;;;12.93;8.33;;;;;;;4.36;73.97;100921.05;2120863;82;21185;-69
2020/12/19 13:22:59;;;;;;;12.98;8.15;;;;;;;4.37;74.14;100916.17;2096206;82;21193;-68
2020/12/19 13:26:00;;;;;;;16.12;9.28;;;;;;;4.34;74.16;100921.65;2113715;82;21221;-69
2020/12/19 13:29:03;;;;;;;14.13;8.65;;;;;;;4.34;74.32;100921.65;2121841;82;21093;-70
2020/12/19 13:32:05;;;;;;;16.62;8.70;;;;;;;4.30;74.13;100930.67;2118157;83;21562;-70
2020/12/19 13:35:06;;;;;;;15.05;9.23;;;;;;;4.27;74.14;100926.95;2118744;82;21154;-69
2020/12/19 13:38:08;;;;;;;14.20;9.08;;;;;;;4.25;74.42;100936.71;2117452;82;21196;-68
2020/12/19 13:41:12;;;;;;;17.10;9.83;;;;;;;4.19;74.47;100931.41;2119803;82;21196;-68
2020/12/19 13:44:12;;;;;;;15.72;9.50;;;;;;;4.16;74.45;100942.13;2097034;82;21156;-69
2020/12/19 13:47:14;;;;;;;16.25;8.70;;;;;;;4.12;74.45;100938.52;2098168;82;21125;-75
2020/12/19 13:50:16;;;;;;;14.07;8.55;;;;;;;4.06;74.53;100940.27;2115936;82;21137;-70
2020/12/19 13:53:17;;;;;;;14.53;8.75;;;;;;;4.00;74.64;100941.52;2095305;82;21121;-69
2020/12/19 13:56:20;;;;;;;17.05;10.15;;;;;;;3.98;74.76;100942.09;2117522;82;21629;-69
2020/12/19 13:59:22;;;;;;;20.43;10.82;;;;;;;3.93;74.72;100941.08;2111412;82;21148;-71
2020/12/19 14:02:23;;;;;;;20.23;10.63;;;;;;;3.90;74.81;100940.45;2111576;82;21172;-74